sensor_id;sensor_type;location;lat;lon;timestamp;pressure;altitude;pressure_sealevel;temperature;humidity
39105;BME280;46464;51.154;13.812;2023-04-25T00:01:35;52273.28;;;-146.96;72.45
39105;BME280;46464;51.154;13.812;2023-04-25T00:04:02;52291.59;;;-146.96;72.02
39105;BME280;46464;51.154;13.812;2023-04-25T00:06:29;52222.41;;;-146.96;71.97
39105;BME280;46464;51.154;13.812;2023-04-25T00:08:56;52267.19;;;-146.96;71.91
39105;BME280;46464;51.154;13.812;2023-04-25T00:11:23;52309.91;;;-146.96;71.37
39105;BME280;46464;51.154;13.812;2023-04-25T00:13:49;52293.63;;;-146.96;71.69
39105;BME280;46464;51.154;13.812;2023-04-25T00:16:20;52301.78;;;-146.96;72.20
39105;BME280;46464;51.154;13.812;2023-04-25T00:18:46;52311.94;;;-146.96;72.45
39105;BME280;46464;51.154;13.812;2023-04-25T00:21:18;52289.56;;;-146.96;72.68
39105;BME280;46464;51.154;13.812;2023-04-25T00:23:46;52326.19;;;-146.96;72.89
39105;BME280;46464;51.154;13.812;2023-04-25T00:26:13;52277.34;;;-146.96;72.52
39105;BME280;46464;51.154;13.812;2023-04-25T00:28:40;52297.72;;;-146.96;72.24
39105;BME280;46464;51.154;13.812;2023-04-25T00:31:07;52324.16;;;-146.96;72.60
39105;BME280;46464;51.154;13.812;2023-04-25T00:33:33;52281.44;;;-146.96;73.02
39105;BME280;46464;51.154;13.812;2023-04-25T00:36:00;52305.84;;;-146.96;73.18
39105;BME280;46464;51.154;13.812;2023-04-25T00:38:26;52305.84;;;-146.96;73.83
39105;BME280;46464;51.154;13.812;2023-04-25T00:40:53;52328.22;;;-146.96;74.06
39105;BME280;46464;51.154;13.812;2023-04-25T00:43:21;52309.91;;;-146.96;74.12
39105;BME280;46464;51.154;13.812;2023-04-25T00:45:48;52291.59;;;-146.96;74.36
39105;BME280;46464;51.154;13.812;2023-04-25T00:48:17;52324.16;;;-146.96;74.58
39105;BME280;46464;51.154;13.812;2023-04-25T00:50:48;52269.22;;;-146.96;74.41
39105;BME280;46464;51.154;13.812;2023-04-25T00:53:17;52285.50;;;-146.96;74.66
39105;BME280;46464;51.154;13.812;2023-04-25T00:55:43;52301.78;;;-146.96;74.40
39105;BME280;46464;51.154;13.812;2023-04-25T00:58:10;52309.91;;;-146.96;74.80
39105;BME280;46464;51.154;13.812;2023-04-25T01:00:36;52316.03;;;-146.96;74.34
39105;BME280;46464;51.154;13.812;2023-04-25T01:03:03;52360.78;;;-146.96;74.65
39105;BME280;46464;51.154;13.812;2023-04-25T01:05:30;52297.72;;;-146.96;74.90
39105;BME280;46464;51.154;13.812;2023-04-25T01:07:56;52328.22;;;-146.96;74.99
39105;BME280;46464;51.154;13.812;2023-04-25T01:10:23;52340.44;;;-146.96;74.64
39105;BME280;46464;51.154;13.812;2023-04-25T01:12:49;52338.41;;;-146.96;74.86
39105;BME280;46464;51.154;13.812;2023-04-25T01:15:16;52350.59;;;-146.96;75.08
39105;BME280;46464;51.154;13.812;2023-04-25T01:17:43;52389.28;;;-146.96;75.05
39105;BME280;46464;51.154;13.812;2023-04-25T01:20:11;52356.72;;;-146.96;75.43
39105;BME280;46464;51.154;13.812;2023-04-25T01:22:37;52379.09;;;-146.96;75.41
39105;BME280;46464;51.154;13.812;2023-04-25T01:25:04;52348.56;;;-146.96;75.52
39105;BME280;46464;51.154;13.812;2023-04-25T01:27:31;52332.28;;;-146.96;75.29
39105;BME280;46464;51.154;13.812;2023-04-25T01:29:58;52307.88;;;-146.96;75.66
39105;BME280;46464;51.154;13.812;2023-04-25T01:32:26;52379.09;;;-146.96;76.58
39105;BME280;46464;51.154;13.812;2023-04-25T01:34:52;52358.75;;;-146.96;77.49
39105;BME280;46464;51.154;13.812;2023-04-25T01:37:19;52316.03;;;-146.96;76.94
39105;BME280;46464;51.154;13.812;2023-04-25T01:39:46;52313.97;;;-146.96;77.76
39105;BME280;46464;51.154;13.812;2023-04-25T01:42:12;52346.53;;;-146.96;77.88
39105;BME280;46464;51.154;13.812;2023-04-25T01:44:39;52322.13;;;-146.96;77.54
39105;BME280;46464;51.154;13.812;2023-04-25T01:47:06;52318.06;;;-146.96;77.96
39105;BME280;46464;51.154;13.812;2023-04-25T01:49:32;52322.13;;;-146.96;77.85
39105;BME280;46464;51.154;13.812;2023-04-25T01:51:59;52322.13;;;-146.96;77.73
39105;BME280;46464;51.154;13.812;2023-04-25T01:54:25;52318.06;;;-146.96;77.91
39105;BME280;46464;51.154;13.812;2023-04-25T01:56:52;52322.13;;;-146.96;77.71
39105;BME280;46464;51.154;13.812;2023-04-25T01:59:18;52318.06;;;-146.96;77.58
39105;BME280;46464;51.154;13.812;2023-04-25T02:01:46;52350.59;;;-146.96;77.36
39105;BME280;46464;51.154;13.812;2023-04-25T02:04:13;52326.19;;;-146.96;77.01
39105;BME280;46464;51.154;13.812;2023-04-25T02:06:40;52318.06;;;-146.96;77.03
39105;BME280;46464;51.154;13.812;2023-04-25T02:09:06;52320.09;;;-146.96;76.46
39105;BME280;46464;51.154;13.812;2023-04-25T02:11:32;52344.50;;;-146.96;76.29
39105;BME280;46464;51.154;13.812;2023-04-25T02:13:59;52316.03;;;-146.96;76.46
39105;BME280;46464;51.154;13.812;2023-04-25T02:16:25;52313.97;;;-146.96;75.98
39105;BME280;46464;51.154;13.812;2023-04-25T02:18:52;52334.34;;;-146.96;75.85
39105;BME280;46464;51.154;13.812;2023-04-25T02:21:19;52338.41;;;-146.96;75.90
39105;BME280;46464;51.154;13.812;2023-04-25T02:23:45;52344.50;;;-146.96;75.80
39105;BME280;46464;51.154;13.812;2023-04-25T02:26:15;52289.56;;;-146.96;75.80
39105;BME280;46464;51.154;13.812;2023-04-25T02:28:41;52342.47;;;-146.96;75.77
39105;BME280;46464;51.154;13.812;2023-04-25T02:31:08;52320.09;;;-146.96;75.80
39105;BME280;46464;51.154;13.812;2023-04-25T02:33:35;52342.47;;;-146.96;75.19
39105;BME280;46464;51.154;13.812;2023-04-25T02:36:01;52350.59;;;-146.96;75.11
39105;BME280;46464;51.154;13.812;2023-04-25T02:38:28;52293.63;;;-146.96;74.93
39105;BME280;46464;51.154;13.812;2023-04-25T02:40:54;52366.88;;;-146.96;75.19
39105;BME280;46464;51.154;13.812;2023-04-25T02:43:20;52346.53;;;-146.96;75.17
39105;BME280;46464;51.154;13.812;2023-04-25T02:45:48;52326.19;;;-146.96;75.05
39105;BME280;46464;51.154;13.812;2023-04-25T02:48:14;52334.34;;;-146.96;75.41
39105;BME280;46464;51.154;13.812;2023-04-25T02:50:41;52348.56;;;-146.96;75.43
39105;BME280;46464;51.154;13.812;2023-04-25T02:53:07;52342.47;;;-146.96;75.26
39105;BME280;46464;51.154;13.812;2023-04-25T02:55:34;52354.69;;;-146.96;75.22
39105;BME280;46464;51.154;13.812;2023-04-25T02:58:01;52332.28;;;-146.96;75.42
39105;BME280;46464;51.154;13.812;2023-04-25T03:00:27;52330.25;;;-146.96;75.28
39105;BME280;46464;51.154;13.812;2023-04-25T03:02:54;52309.91;;;-146.96;74.91
39105;BME280;46464;51.154;13.812;2023-04-25T03:05:21;52299.75;;;-146.96;75.02
39105;BME280;46464;51.154;13.812;2023-04-25T03:07:48;52375.03;;;-146.96;74.89
39105;BME280;46464;51.154;13.812;2023-04-25T03:10:14;52322.13;;;-146.96;75.18
39105;BME280;46464;51.154;13.812;2023-04-25T03:12:41;52330.25;;;-146.96;75.08
39105;BME280;46464;51.154;13.812;2023-04-25T03:15:07;52305.84;;;-146.96;74.86
39105;BME280;46464;51.154;13.812;2023-04-25T03:17:34;52330.25;;;-146.96;74.79
39105;BME280;46464;51.154;13.812;2023-04-25T03:20:01;52358.75;;;-146.96;75.09
39105;BME280;46464;51.154;13.812;2023-04-25T03:22:27;52391.31;;;-146.96;74.99
39105;BME280;46464;51.154;13.812;2023-04-25T03:24:54;52259.03;;;-146.96;75.19
39105;BME280;46464;51.154;13.812;2023-04-25T03:27:20;52352.66;;;-146.96;75.36
39105;BME280;46464;51.154;13.812;2023-04-25T03:29:47;52305.84;;;-146.96;75.31
39105;BME280;46464;51.154;13.812;2023-04-25T03:32:13;52373.00;;;-146.96;75.12
39105;BME280;46464;51.154;13.812;2023-04-25T03:34:40;52366.88;;;-146.96;75.19
39105;BME280;46464;51.154;13.812;2023-04-25T03:37:07;52350.59;;;-146.96;75.26
39105;BME280;46464;51.154;13.812;2023-04-25T03:39:33;52366.88;;;-146.96;75.16
39105;BME280;46464;51.154;13.812;2023-04-25T03:41:59;52332.28;;;-146.96;74.93
39105;BME280;46464;51.154;13.812;2023-04-25T03:44:27;52360.78;;;-146.96;74.99
39105;BME280;46464;51.154;13.812;2023-04-25T03:46:53;52338.41;;;-146.96;74.83
39105;BME280;46464;51.154;13.812;2023-04-25T03:49:20;52356.72;;;-146.96;74.65
39105;BME280;46464;51.154;13.812;2023-04-25T03:51:46;52346.53;;;-146.96;74.71
39105;BME280;46464;51.154;13.812;2023-04-25T03:54:13;52348.56;;;-146.96;74.35
39105;BME280;46464;51.154;13.812;2023-04-25T03:56:39;52330.25;;;-146.96;74.53
39105;BME280;46464;51.154;13.812;2023-04-25T03:59:06;52350.59;;;-146.96;74.78
39105;BME280;46464;51.154;13.812;2023-04-25T04:01:32;52342.47;;;-146.96;74.33
39105;BME280;46464;51.154;13.812;2023-04-25T04:03:59;52342.47;;;-146.96;74.06
39105;BME280;46464;51.154;13.812;2023-04-25T04:06:25;52334.34;;;-146.96;74.00
39105;BME280;46464;51.154;13.812;2023-04-25T04:08:52;52387.22;;;-146.96;74.07
39105;BME280;46464;51.154;13.812;2023-04-25T04:11:19;52366.88;;;-146.96;73.70
39105;BME280;46464;51.154;13.812;2023-04-25T04:13:46;52344.50;;;-146.96;73.58
39105;BME280;46464;51.154;13.812;2023-04-25T04:16:13;52336.38;;;-146.96;73.75
39105;BME280;46464;51.154;13.812;2023-04-25T04:18:40;52362.81;;;-146.96;73.87
39105;BME280;46464;51.154;13.812;2023-04-25T04:21:06;52344.50;;;-146.96;73.63
39105;BME280;46464;51.154;13.812;2023-04-25T04:23:33;52332.28;;;-146.96;73.82
39105;BME280;46464;51.154;13.812;2023-04-25T04:25:59;52287.53;;;-146.96;74.11
39105;BME280;46464;51.154;13.812;2023-04-25T04:28:27;52375.03;;;-146.96;74.10
39105;BME280;46464;51.154;13.812;2023-04-25T04:30:54;52354.69;;;-146.96;74.03
39105;BME280;46464;51.154;13.812;2023-04-25T04:33:21;52360.78;;;-146.96;73.90
39105;BME280;46464;51.154;13.812;2023-04-25T04:35:50;52350.59;;;-146.96;74.10
39105;BME280;46464;51.154;13.812;2023-04-25T04:38:18;52338.41;;;-146.96;74.50
39105;BME280;46464;51.154;13.812;2023-04-25T04:40:45;52330.25;;;-146.96;74.16
39105;BME280;46464;51.154;13.812;2023-04-25T04:43:13;52295.66;;;-146.96;74.22
39105;BME280;46464;51.154;13.812;2023-04-25T04:45:41;52368.94;;;-146.96;74.17
39105;BME280;46464;51.154;13.812;2023-04-25T04:48:07;52322.13;;;-146.96;73.63
39105;BME280;46464;51.154;13.812;2023-04-25T04:50:34;52362.81;;;-146.96;73.50
39105;BME280;46464;51.154;13.812;2023-04-25T04:53:01;52360.78;;;-146.96;73.57
39105;BME280;46464;51.154;13.812;2023-04-25T04:55:28;52322.13;;;-146.96;72.91
39105;BME280;46464;51.154;13.812;2023-04-25T04:57:54;52338.41;;;-146.96;72.64
39105;BME280;46464;51.154;13.812;2023-04-25T05:00:21;52346.53;;;-146.96;72.08
39105;BME280;46464;51.154;13.812;2023-04-25T05:02:48;52352.66;;;-146.96;72.06
39105;BME280;46464;51.154;13.812;2023-04-25T05:05:14;52330.25;;;-146.96;72.08
39105;BME280;46464;51.154;13.812;2023-04-25T05:07:41;52305.84;;;-146.96;71.70
39105;BME280;46464;51.154;13.812;2023-04-25T05:10:08;52320.09;;;-146.96;72.56
39105;BME280;46464;51.154;13.812;2023-04-25T05:12:34;52338.41;;;-146.96;71.93
39105;BME280;46464;51.154;13.812;2023-04-25T05:15:02;52297.72;;;-146.96;71.51
39105;BME280;46464;51.154;13.812;2023-04-25T05:17:29;52295.66;;;-146.96;70.42
39105;BME280;46464;51.154;13.812;2023-04-25T05:19:55;52316.03;;;-146.96;69.95
39105;BME280;46464;51.154;13.812;2023-04-25T05:22:22;52324.16;;;-146.96;68.13
39105;BME280;46464;51.154;13.812;2023-04-25T05:24:49;52281.44;;;-146.96;66.26
39105;BME280;46464;51.154;13.812;2023-04-25T05:27:17;52277.34;;;-146.96;64.21
39105;BME280;46464;51.154;13.812;2023-04-25T05:29:44;52269.22;;;-146.96;63.01
39105;BME280;46464;51.154;13.812;2023-04-25T05:32:10;52248.88;;;-146.96;61.21
39105;BME280;46464;51.154;13.812;2023-04-25T05:34:37;52252.94;;;-146.96;60.58
39105;BME280;46464;51.154;13.812;2023-04-25T05:37:04;52224.47;;;-146.96;59.94
39105;BME280;46464;51.154;13.812;2023-04-25T05:39:30;52250.91;;;-146.96;58.33
39105;BME280;46464;51.154;13.812;2023-04-25T05:41:56;52179.69;;;-146.96;57.41
39105;BME280;46464;51.154;13.812;2023-04-25T05:44:23;52234.63;;;-146.96;56.82
39105;BME280;46464;51.154;13.812;2023-04-25T05:46:49;52171.56;;;-146.96;57.38
39105;BME280;46464;51.154;13.812;2023-04-25T05:49:16;52175.63;;;-146.96;55.46
39105;BME280;46464;51.154;13.812;2023-04-25T05:51:44;52163.41;;;-146.96;55.01
39105;BME280;46464;51.154;13.812;2023-04-25T05:54:11;52183.75;;;-146.96;54.55
39105;BME280;46464;51.154;13.812;2023-04-25T05:56:37;52200.03;;;-146.96;55.32
39105;BME280;46464;51.154;13.812;2023-04-25T05:59:04;52208.19;;;-146.96;55.21
39105;BME280;46464;51.154;13.812;2023-04-25T06:01:31;52206.16;;;-146.96;55.24
39105;BME280;46464;51.154;13.812;2023-04-25T06:03:57;52206.16;;;-146.96;55.54
39105;BME280;46464;51.154;13.812;2023-04-25T06:06:24;52171.56;;;-146.96;53.40
39105;BME280;46464;51.154;13.812;2023-04-25T06:08:53;52147.13;;;-146.96;53.56
39105;BME280;46464;51.154;13.812;2023-04-25T06:11:19;52145.09;;;-146.96;53.52
39105;BME280;46464;51.154;13.812;2023-04-25T06:13:46;52155.28;;;-146.96;54.30
39105;BME280;46464;51.154;13.812;2023-04-25T06:16:12;52149.19;;;-146.96;54.84
39105;BME280;46464;51.154;13.812;2023-04-25T06:18:39;52165.44;;;-146.96;53.53
39105;BME280;46464;51.154;13.812;2023-04-25T06:21:05;52171.56;;;-146.96;52.77
39105;BME280;46464;51.154;13.812;2023-04-25T06:23:32;52173.59;;;-146.96;53.17
39105;BME280;46464;51.154;13.812;2023-04-25T06:25:58;52155.28;;;-146.96;53.22
39105;BME280;46464;51.154;13.812;2023-04-25T06:28:25;52163.41;;;-146.96;54.35
39105;BME280;46464;51.154;13.812;2023-04-25T06:30:51;52191.91;;;-146.96;54.20
39105;BME280;46464;51.154;13.812;2023-04-25T06:33:18;52173.59;;;-146.96;55.40
39105;BME280;46464;51.154;13.812;2023-04-25T06:35:44;52185.81;;;-146.96;54.95
39105;BME280;46464;51.154;13.812;2023-04-25T06:38:11;52195.97;;;-146.96;56.10
39105;BME280;46464;51.154;13.812;2023-04-25T06:40:38;52214.28;;;-146.96;56.23
39105;BME280;46464;51.154;13.812;2023-04-25T06:43:04;52204.13;;;-146.96;57.00
39105;BME280;46464;51.154;13.812;2023-04-25T06:45:31;52216.31;;;-146.96;58.49
39105;BME280;46464;51.154;13.812;2023-04-25T06:47:57;52220.38;;;-146.96;58.90
39105;BME280;46464;51.154;13.812;2023-04-25T06:50:24;52242.78;;;-146.96;59.05
39105;BME280;46464;51.154;13.812;2023-04-25T06:52:50;52228.53;;;-146.96;58.60
39105;BME280;46464;51.154;13.812;2023-04-25T06:55:17;52246.84;;;-146.96;58.24
39105;BME280;46464;51.154;13.812;2023-04-25T06:57:43;52267.19;;;-146.96;58.83
39105;BME280;46464;51.154;13.812;2023-04-25T07:00:10;52240.75;;;-146.96;58.97
39105;BME280;46464;51.154;13.812;2023-04-25T07:02:37;52179.69;;;-146.96;56.95
39105;BME280;46464;51.154;13.812;2023-04-25T07:05:04;52200.03;;;-146.96;55.83
39105;BME280;46464;51.154;13.812;2023-04-25T07:07:31;52195.97;;;-146.96;55.86
39105;BME280;46464;51.154;13.812;2023-04-25T07:09:57;52171.56;;;-146.96;54.94
39105;BME280;46464;51.154;13.812;2023-04-25T07:12:24;52202.06;;;-146.96;55.07
39105;BME280;46464;51.154;13.812;2023-04-25T07:14:50;52189.88;;;-146.96;54.41
39105;BME280;46464;51.154;13.812;2023-04-25T07:17:17;52167.50;;;-146.96;53.89
39105;BME280;46464;51.154;13.812;2023-04-25T07:19:43;52187.84;;;-146.96;53.00
39105;BME280;46464;51.154;13.812;2023-04-25T07:22:10;52165.44;;;-146.96;54.18
39105;BME280;46464;51.154;13.812;2023-04-25T07:24:36;52193.94;;;-146.96;53.13
39105;BME280;46464;51.154;13.812;2023-04-25T07:27:03;52139.00;;;-146.96;52.98
39105;BME280;46464;51.154;13.812;2023-04-25T07:29:29;52143.06;;;-146.96;52.81
39105;BME280;46464;51.154;13.812;2023-04-25T07:31:57;52179.69;;;-146.96;53.79
39105;BME280;46464;51.154;13.812;2023-04-25T07:34:23;52173.59;;;-146.96;54.48
39105;BME280;46464;51.154;13.812;2023-04-25T07:36:50;52208.19;;;-146.96;53.45
39105;BME280;46464;51.154;13.812;2023-04-25T07:39:16;52167.50;;;-146.96;54.61
39105;BME280;46464;51.154;13.812;2023-04-25T07:41:43;52155.28;;;-146.96;54.00
39105;BME280;46464;51.154;13.812;2023-04-25T07:44:09;52191.91;;;-146.96;53.94
39105;BME280;46464;51.154;13.812;2023-04-25T07:46:36;52181.72;;;-146.96;55.52
39105;BME280;46464;51.154;13.812;2023-04-25T07:49:02;52198.00;;;-146.96;55.36
39105;BME280;46464;51.154;13.812;2023-04-25T07:51:29;52153.25;;;-146.96;55.05
39105;BME280;46464;51.154;13.812;2023-04-25T07:53:55;52169.53;;;-146.96;55.08
39105;BME280;46464;51.154;13.812;2023-04-25T07:56:21;52165.44;;;-146.96;54.71
39105;BME280;46464;51.154;13.812;2023-04-25T07:58:48;52141.03;;;-146.96;54.97
39105;BME280;46464;51.154;13.812;2023-04-25T08:01:15;52169.53;;;-146.96;55.07
39105;BME280;46464;51.154;13.812;2023-04-25T08:03:41;52175.63;;;-146.96;55.68
39105;BME280;46464;51.154;13.812;2023-04-25T08:06:08;52165.44;;;-146.96;55.82
39105;BME280;46464;51.154;13.812;2023-04-25T08:08:35;52165.44;;;-146.96;56.70
39105;BME280;46464;51.154;13.812;2023-04-25T08:11:02;52185.81;;;-146.96;56.24
39105;BME280;46464;51.154;13.812;2023-04-25T08:13:28;52167.50;;;-146.96;57.33
39105;BME280;46464;51.154;13.812;2023-04-25T08:15:54;52165.44;;;-146.96;56.80
39105;BME280;46464;51.154;13.812;2023-04-25T08:18:21;52155.28;;;-146.96;54.47
39105;BME280;46464;51.154;13.812;2023-04-25T08:20:47;52181.72;;;-146.96;56.37
39105;BME280;46464;51.154;13.812;2023-04-25T08:23:14;52187.84;;;-146.96;56.76
39105;BME280;46464;51.154;13.812;2023-04-25T08:25:41;52185.81;;;-146.96;56.67
39105;BME280;46464;51.154;13.812;2023-04-25T08:28:07;52232.59;;;-146.96;56.79
39105;BME280;46464;51.154;13.812;2023-04-25T08:30:34;52208.19;;;-146.96;58.74
39105;BME280;46464;51.154;13.812;2023-04-25T08:33:00;52193.94;;;-146.96;58.09
39105;BME280;46464;51.154;13.812;2023-04-25T08:35:27;52171.56;;;-146.96;58.46
39105;BME280;46464;51.154;13.812;2023-04-25T08:37:53;52202.06;;;-146.96;58.60
39105;BME280;46464;51.154;13.812;2023-04-25T08:40:22;52195.97;;;-146.96;58.09
39105;BME280;46464;51.154;13.812;2023-04-25T08:42:53;52198.00;;;-146.96;58.40
39105;BME280;46464;51.154;13.812;2023-04-25T08:45:20;52232.59;;;-146.96;57.98
39105;BME280;46464;51.154;13.812;2023-04-25T08:47:47;52222.41;;;-146.96;58.84
39105;BME280;46464;51.154;13.812;2023-04-25T08:50:16;52195.97;;;-146.96;58.37
39105;BME280;46464;51.154;13.812;2023-04-25T08:52:44;52198.00;;;-146.96;58.65
39105;BME280;46464;51.154;13.812;2023-04-25T08:55:12;52191.91;;;-146.96;58.50
39105;BME280;46464;51.154;13.812;2023-04-25T08:57:41;52195.97;;;-146.96;57.93
39105;BME280;46464;51.154;13.812;2023-04-25T09:00:10;52163.41;;;-146.96;57.58
39105;BME280;46464;51.154;13.812;2023-04-25T09:02:42;52191.91;;;-146.96;55.89
39105;BME280;46464;51.154;13.812;2023-04-25T09:05:13;52224.47;;;-146.96;57.83
39105;BME280;46464;51.154;13.812;2023-04-25T09:07:43;52218.34;;;-146.96;58.70
39105;BME280;46464;51.154;13.812;2023-04-25T09:10:17;52208.19;;;-146.96;59.40
39105;BME280;46464;51.154;13.812;2023-04-25T09:13:01;52181.72;;;-146.96;58.96
39105;BME280;46464;51.154;13.812;2023-04-25T09:15:28;52195.97;;;-146.96;59.06
39105;BME280;46464;51.154;13.812;2023-04-25T09:17:56;52222.41;;;-146.96;59.27
39105;BME280;46464;51.154;13.812;2023-04-25T09:20:23;52208.19;;;-146.96;59.49
39105;BME280;46464;51.154;13.812;2023-04-25T09:23:04;52210.22;;;-146.96;60.93
39105;BME280;46464;51.154;13.812;2023-04-25T09:25:35;52236.66;;;-146.96;60.91
39105;BME280;46464;51.154;13.812;2023-04-25T09:28:05;52214.28;;;-146.96;60.14
39105;BME280;46464;51.154;13.812;2023-04-25T09:30:34;52244.81;;;-146.96;59.39
39105;BME280;46464;51.154;13.812;2023-04-25T09:33:11;52226.50;;;-146.96;59.11
39105;BME280;46464;51.154;13.812;2023-04-25T09:35:40;52222.41;;;-146.96;59.11
39105;BME280;46464;51.154;13.812;2023-04-25T09:38:11;52218.34;;;-146.96;59.13
39105;BME280;46464;51.154;13.812;2023-04-25T09:40:40;52214.28;;;-146.96;59.09
39105;BME280;46464;51.154;13.812;2023-04-25T09:43:20;52206.16;;;-146.96;58.69
39105;BME280;46464;51.154;13.812;2023-04-25T09:45:51;52185.81;;;-146.96;58.74
39105;BME280;46464;51.154;13.812;2023-04-25T09:48:21;52212.25;;;-146.96;58.26
39105;BME280;46464;51.154;13.812;2023-04-25T09:53:41;52204.13;;;-146.96;59.51
39105;BME280;46464;51.154;13.812;2023-04-25T09:56:10;52220.38;;;-146.96;59.60
39105;BME280;46464;51.154;13.812;2023-04-25T09:58:39;52185.81;;;-146.96;59.08
39105;BME280;46464;51.154;13.812;2023-04-25T10:01:08;52216.31;;;-146.96;58.14
39105;BME280;46464;51.154;13.812;2023-04-25T10:03:37;52216.31;;;-146.96;58.26
39105;BME280;46464;51.154;13.812;2023-04-25T10:06:12;52177.66;;;-146.96;58.06
39105;BME280;46464;51.154;13.812;2023-04-25T10:08:41;52200.03;;;-146.96;58.33
39105;BME280;46464;51.154;13.812;2023-04-25T10:11:08;52181.72;;;-146.96;56.45
39105;BME280;46464;51.154;13.812;2023-04-25T10:13:35;52204.13;;;-146.96;56.15
39105;BME280;46464;51.154;13.812;2023-04-25T10:16:03;52244.81;;;-146.96;57.26
39105;BME280;46464;51.154;13.812;2023-04-25T10:18:31;52167.50;;;-146.96;57.98
39105;BME280;46464;51.154;13.812;2023-04-25T10:21:00;52206.16;;;-146.96;58.52
39105;BME280;46464;51.154;13.812;2023-04-25T10:23:27;52171.56;;;-146.96;58.91
39105;BME280;46464;51.154;13.812;2023-04-25T10:25:55;52187.84;;;-146.96;59.27
39105;BME280;46464;51.154;13.812;2023-04-25T10:28:23;52157.31;;;-146.96;59.23
39105;BME280;46464;51.154;13.812;2023-04-25T10:31:02;52165.44;;;-146.96;60.17
39105;BME280;46464;51.154;13.812;2023-04-25T10:36:12;52189.88;;;-146.96;59.56
39105;BME280;46464;51.154;13.812;2023-04-25T10:38:41;52200.03;;;-146.96;59.24
39105;BME280;46464;51.154;13.812;2023-04-25T10:41:09;52202.06;;;-146.96;59.81
39105;BME280;46464;51.154;13.812;2023-04-25T10:43:42;52206.16;;;-146.96;59.56
39105;BME280;46464;51.154;13.812;2023-04-25T10:48:51;52187.84;;;-146.96;60.50
39105;BME280;46464;51.154;13.812;2023-04-25T10:51:22;52202.06;;;-146.96;60.57
39105;BME280;46464;51.154;13.812;2023-04-25T10:56:25;52222.41;;;-146.96;60.34
39105;BME280;46464;51.154;13.812;2023-04-25T10:59:03;52222.41;;;-146.96;60.60
39105;BME280;46464;51.154;13.812;2023-04-25T11:01:36;52236.66;;;-146.96;61.23
39105;BME280;46464;51.154;13.812;2023-04-25T11:04:03;52254.97;;;-146.96;62.39
39105;BME280;46464;51.154;13.812;2023-04-25T11:06:53;52236.66;;;-146.96;63.48
39105;BME280;46464;51.154;13.812;2023-04-25T11:09:33;52240.75;;;-146.96;65.04
39105;BME280;46464;51.154;13.812;2023-04-25T11:11:59;52263.13;;;-146.96;67.24
39105;BME280;46464;51.154;13.812;2023-04-25T11:14:26;52254.97;;;-146.96;68.38
39105;BME280;46464;51.154;13.812;2023-04-25T11:16:57;52244.81;;;-146.96;69.51
39105;BME280;46464;51.154;13.812;2023-04-25T11:19:27;52279.41;;;-146.96;69.63
39105;BME280;46464;51.154;13.812;2023-04-25T11:21:58;52287.53;;;-146.96;69.38
39105;BME280;46464;51.154;13.812;2023-04-25T11:24:32;52267.19;;;-146.96;66.18
39105;BME280;46464;51.154;13.812;2023-04-25T11:27:03;52307.88;;;-146.96;65.50
39105;BME280;46464;51.154;13.812;2023-04-25T11:29:31;52259.03;;;-146.96;64.20
39105;BME280;46464;51.154;13.812;2023-04-25T11:31:58;52265.16;;;-146.96;61.41
39105;BME280;46464;51.154;13.812;2023-04-25T11:34:27;52271.25;;;-146.96;60.44
39105;BME280;46464;51.154;13.812;2023-04-25T11:36:56;52224.47;;;-146.96;61.07
39105;BME280;46464;51.154;13.812;2023-04-25T11:39:24;52279.41;;;-146.96;61.22
39105;BME280;46464;51.154;13.812;2023-04-25T11:41:51;52210.22;;;-146.96;60.70
39105;BME280;46464;51.154;13.812;2023-04-25T11:44:19;52238.69;;;-146.96;61.47
39105;BME280;46464;51.154;13.812;2023-04-25T11:46:46;52254.97;;;-146.96;61.68
39105;BME280;46464;51.154;13.812;2023-04-25T11:49:15;52214.28;;;-146.96;61.48
39105;BME280;46464;51.154;13.812;2023-04-25T11:51:46;52234.63;;;-146.96;61.04
39105;BME280;46464;51.154;13.812;2023-04-25T11:54:13;52238.69;;;-146.96;60.97
39105;BME280;46464;51.154;13.812;2023-04-25T11:56:44;52206.16;;;-146.96;61.46
39105;BME280;46464;51.154;13.812;2023-04-25T11:59:11;52248.88;;;-146.96;60.47
39105;BME280;46464;51.154;13.812;2023-04-25T12:01:41;52183.75;;;-146.96;60.65
39105;BME280;46464;51.154;13.812;2023-04-25T12:04:15;52185.81;;;-146.96;59.89
39105;BME280;46464;51.154;13.812;2023-04-25T12:06:44;52173.59;;;-146.96;57.33
39105;BME280;46464;51.154;13.812;2023-04-25T12:09:15;52224.47;;;-146.96;57.46
39105;BME280;46464;51.154;13.812;2023-04-25T12:11:52;52179.69;;;-146.96;57.57
39105;BME280;46464;51.154;13.812;2023-04-25T12:16:56;52208.19;;;-146.96;57.33
39105;BME280;46464;51.154;13.812;2023-04-25T12:19:24;52232.59;;;-146.96;58.39
39105;BME280;46464;51.154;13.812;2023-04-25T12:21:52;52244.81;;;-146.96;58.20
39105;BME280;46464;51.154;13.812;2023-04-25T12:24:26;52214.28;;;-146.96;58.79
39105;BME280;46464;51.154;13.812;2023-04-25T12:27:01;52206.16;;;-146.96;60.12
39105;BME280;46464;51.154;13.812;2023-04-25T12:29:30;52224.47;;;-146.96;59.83
39105;BME280;46464;51.154;13.812;2023-04-25T12:32:03;52232.59;;;-146.96;59.97
39105;BME280;46464;51.154;13.812;2023-04-25T12:34:31;52254.97;;;-146.96;60.21
39105;BME280;46464;51.154;13.812;2023-04-25T12:36:58;52216.31;;;-146.96;60.51
39105;BME280;46464;51.154;13.812;2023-04-25T12:39:24;52216.31;;;-146.96;60.79
39105;BME280;46464;51.154;13.812;2023-04-25T12:41:52;52198.00;;;-146.96;59.22
39105;BME280;46464;51.154;13.812;2023-04-25T12:44:20;52183.75;;;-146.96;57.41
39105;BME280;46464;51.154;13.812;2023-04-25T12:46:47;52183.75;;;-146.96;55.37